sensor_id;sensor_type;location;lat;lon;timestamp;pressure;altitude;pressure_sealevel;temperature
69435;BMP180;56625;54.322;18.582;2024-03-02T00:00:53;100435.20;;;8.50
69435;BMP180;56625;54.322;18.582;2024-03-02T00:03:42;100432.80;;;8.50
69435;BMP180;56625;54.322;18.582;2024-03-02T00:06:11;100440.40;;;8.50
69435;BMP180;56625;54.322;18.582;2024-03-02T00:08:40;100442.60;;;8.50
69435;BMP180;56625;54.322;18.582;2024-03-02T00:11:08;100437.80;;;8.50
69435;BMP180;56625;54.322;18.582;2024-03-02T00:13:38;100433.40;;;8.48
69435;BMP180;56625;54.322;18.582;2024-03-02T00:16:07;100430.60;;;8.42
69435;BMP180;56625;54.322;18.582;2024-03-02T00:18:36;100435.00;;;8.40
69435;BMP180;56625;54.322;18.582;2024-03-02T00:21:06;100433.00;;;8.40
69435;BMP180;56625;54.322;18.582;2024-03-02T00:23:38;100433.60;;;8.40
69435;BMP180;56625;54.322;18.582;2024-03-02T00:26:06;100439.00;;;8.40
69435;BMP180;56625;54.322;18.582;2024-03-02T00:28:36;100442.60;;;8.40
69435;BMP180;56625;54.322;18.582;2024-03-02T00:31:13;100435.80;;;8.40
69435;BMP180;56625;54.322;18.582;2024-03-02T00:36:21;100436.20;;;8.40
69435;BMP180;56625;54.322;18.582;2024-03-02T00:38:54;100431.60;;;8.40
69435;BMP180;56625;54.322;18.582;2024-03-02T00:41:29;100432.80;;;8.30
69435;BMP180;56625;54.322;18.582;2024-03-02T00:46:34;100427.80;;;8.34
69435;BMP180;56625;54.322;18.582;2024-03-02T00:49:06;100418.00;;;8.30
69435;BMP180;56625;54.322;18.582;2024-03-02T00:51:39;100422.80;;;8.30
69435;BMP180;56625;54.322;18.582;2024-03-02T00:54:09;100413.20;;;8.30
69435;BMP180;56625;54.322;18.582;2024-03-02T00:56:38;100414.00;;;8.30
69435;BMP180;56625;54.322;18.582;2024-03-02T00:59:06;100413.20;;;8.30
69435;BMP180;56625;54.322;18.582;2024-03-02T01:01:34;100412.80;;;8.22
69435;BMP180;56625;54.322;18.582;2024-03-02T01:04:03;100410.00;;;8.20
69435;BMP180;56625;54.322;18.582;2024-03-02T01:06:31;100417.40;;;8.20
69435;BMP180;56625;54.322;18.582;2024-03-02T01:08:59;100413.40;;;8.20
69435;BMP180;56625;54.322;18.582;2024-03-02T01:11:29;100411.00;;;8.20
69435;BMP180;56625;54.322;18.582;2024-03-02T01:13:58;100405.80;;;8.20
69435;BMP180;56625;54.322;18.582;2024-03-02T01:16:26;100407.40;;;8.20
69435;BMP180;56625;54.322;18.582;2024-03-02T01:18:54;100414.80;;;8.20
69435;BMP180;56625;54.322;18.582;2024-03-02T01:21:22;100418.40;;;8.20
69435;BMP180;56625;54.322;18.582;2024-03-02T01:23:50;100422.20;;;8.16
69435;BMP180;56625;54.322;18.582;2024-03-02T01:26:19;100421.60;;;8.18
69435;BMP180;56625;54.322;18.582;2024-03-02T01:28:47;100415.80;;;8.10
69435;BMP180;56625;54.322;18.582;2024-03-02T01:31:15;100409.40;;;8.14
69435;BMP180;56625;54.322;18.582;2024-03-02T01:33:43;100408.40;;;8.10
69435;BMP180;56625;54.322;18.582;2024-03-02T01:36:11;100406.60;;;8.10
69435;BMP180;56625;54.322;18.582;2024-03-02T01:38:39;100406.60;;;8.10
69435;BMP180;56625;54.322;18.582;2024-03-02T01:41:07;100403.40;;;8.10
69435;BMP180;56625;54.322;18.582;2024-03-02T01:43:35;100404.80;;;8.10
69435;BMP180;56625;54.322;18.582;2024-03-02T01:46:08;100406.60;;;8.08
69435;BMP180;56625;54.322;18.582;2024-03-02T01:48:37;100403.40;;;8.00
69435;BMP180;56625;54.322;18.582;2024-03-02T01:51:06;100397.20;;;8.00
69435;BMP180;56625;54.322;18.582;2024-03-02T01:53:35;100398.80;;;8.00
69435;BMP180;56625;54.322;18.582;2024-03-02T01:56:04;100402.40;;;8.00
69435;BMP180;56625;54.322;18.582;2024-03-02T01:58:32;100398.40;;;8.00
69435;BMP180;56625;54.322;18.582;2024-03-02T02:01:00;100400.40;;;8.00
69435;BMP180;56625;54.322;18.582;2024-03-02T02:03:28;100409.00;;;8.00
69435;BMP180;56625;54.322;18.582;2024-03-02T02:05:57;100404.00;;;8.00
69435;BMP180;56625;54.322;18.582;2024-03-02T02:08:27;100398.20;;;8.00
69435;BMP180;56625;54.322;18.582;2024-03-02T02:10:55;100396.80;;;8.00
69435;BMP180;56625;54.322;18.582;2024-03-02T02:13:26;100392.40;;;8.00
69435;BMP180;56625;54.322;18.582;2024-03-02T02:15:54;100391.60;;;8.00
69435;BMP180;56625;54.322;18.582;2024-03-02T02:18:22;100392.60;;;8.00
69435;BMP180;56625;54.322;18.582;2024-03-02T02:20:51;100401.20;;;8.00
69435;BMP180;56625;54.322;18.582;2024-03-02T02:23:19;100397.20;;;8.00
69435;BMP180;56625;54.322;18.582;2024-03-02T02:25:47;100398.80;;;8.00
69435;BMP180;56625;54.322;18.582;2024-03-02T02:28:15;100398.80;;;8.00
69435;BMP180;56625;54.322;18.582;2024-03-02T02:30:43;100402.80;;;8.00
69435;BMP180;56625;54.322;18.582;2024-03-02T02:33:12;100406.00;;;7.90
69435;BMP180;56625;54.322;18.582;2024-03-02T02:35:40;100397.00;;;7.90
69435;BMP180;56625;54.322;18.582;2024-03-02T02:38:08;100396.80;;;7.90
69435;BMP180;56625;54.322;18.582;2024-03-02T02:40:36;100393.60;;;7.90
69435;BMP180;56625;54.322;18.582;2024-03-02T02:43:04;100391.60;;;7.90
69435;BMP180;56625;54.322;18.582;2024-03-02T02:45:32;100381.80;;;7.90
69435;BMP180;56625;54.322;18.582;2024-03-02T02:48:00;100382.40;;;7.90
69435;BMP180;56625;54.322;18.582;2024-03-02T02:50:30;100380.80;;;7.90
69435;BMP180;56625;54.322;18.582;2024-03-02T02:52:58;100375.20;;;7.90
69435;BMP180;56625;54.322;18.582;2024-03-02T02:55:26;100375.20;;;7.90
69435;BMP180;56625;54.322;18.582;2024-03-02T02:57:55;100376.20;;;7.90
69435;BMP180;56625;54.322;18.582;2024-03-02T03:00:23;100376.60;;;7.90
69435;BMP180;56625;54.322;18.582;2024-03-02T03:02:51;100374.80;;;7.90
69435;BMP180;56625;54.322;18.582;2024-03-02T03:05:20;100375.80;;;7.86
69435;BMP180;56625;54.322;18.582;2024-03-02T03:07:48;100377.20;;;7.84
69435;BMP180;56625;54.322;18.582;2024-03-02T03:10:18;100375.80;;;7.80
69435;BMP180;56625;54.322;18.582;2024-03-02T03:12:49;100381.20;;;7.80
69435;BMP180;56625;54.322;18.582;2024-03-02T03:15:17;100378.80;;;7.80
69435;BMP180;56625;54.322;18.582;2024-03-02T03:17:45;100372.80;;;7.80
69435;BMP180;56625;54.322;18.582;2024-03-02T03:20:15;100372.60;;;7.80
69435;BMP180;56625;54.322;18.582;2024-03-02T03:22:43;100371.00;;;7.80
69435;BMP180;56625;54.322;18.582;2024-03-02T03:25:12;100371.20;;;7.80
69435;BMP180;56625;54.322;18.582;2024-03-02T03:27:40;100368.80;;;7.80
69435;BMP180;56625;54.322;18.582;2024-03-02T03:30:10;100370.40;;;7.80
69435;BMP180;56625;54.322;18.582;2024-03-02T03:32:39;100365.60;;;7.80
69435;BMP180;56625;54.322;18.582;2024-03-02T03:35:07;100361.40;;;7.80
69435;BMP180;56625;54.322;18.582;2024-03-02T03:37:36;100357.20;;;7.80
69435;BMP180;56625;54.322;18.582;2024-03-02T03:40:05;100355.60;;;7.80
69435;BMP180;56625;54.322;18.582;2024-03-02T03:42:41;100358.60;;;7.80
69435;BMP180;56625;54.322;18.582;2024-03-02T03:45:10;100357.80;;;7.80
69435;BMP180;56625;54.322;18.582;2024-03-02T03:47:38;100354.20;;;7.80
69435;BMP180;56625;54.322;18.582;2024-03-02T03:50:06;100351.80;;;7.80
69435;BMP180;56625;54.322;18.582;2024-03-02T03:52:35;100350.20;;;7.80
69435;BMP180;56625;54.322;18.582;2024-03-02T03:55:04;100354.80;;;7.78
69435;BMP180;56625;54.322;18.582;2024-03-02T03:57:33;100362.00;;;7.80
69435;BMP180;56625;54.322;18.582;2024-03-02T04:00:03;100363.80;;;7.80
69435;BMP180;56625;54.322;18.582;2024-03-02T04:02:32;100363.40;;;7.80
69435;BMP180;56625;54.322;18.582;2024-03-02T04:05:00;100378.80;;;7.80
69435;BMP180;56625;54.322;18.582;2024-03-02T04:07:28;100383.20;;;7.78
69435;BMP180;56625;54.322;18.582;2024-03-02T04:09:57;100390.80;;;7.70
69435;BMP180;56625;54.322;18.582;2024-03-02T04:12:25;100396.60;;;7.70
69435;BMP180;56625;54.322;18.582;2024-03-02T04:14:54;100392.40;;;7.70
69435;BMP180;56625;54.322;18.582;2024-03-02T04:17:22;100395.80;;;7.70
69435;BMP180;56625;54.322;18.582;2024-03-02T04:19:50;100397.80;;;7.70
69435;BMP180;56625;54.322;18.582;2024-03-02T04:22:18;100390.00;;;7.70
69435;BMP180;56625;54.322;18.582;2024-03-02T04:24:52;100390.40;;;7.70
69435;BMP180;56625;54.322;18.582;2024-03-02T04:27:20;100396.40;;;7.70
69435;BMP180;56625;54.322;18.582;2024-03-02T04:29:48;100390.80;;;7.70
69435;BMP180;56625;54.322;18.582;2024-03-02T04:32:16;100394.80;;;7.70
69435;BMP180;56625;54.322;18.582;2024-03-02T04:34:45;100392.60;;;7.70
69435;BMP180;56625;54.322;18.582;2024-03-02T04:37:13;100393.00;;;7.70
69435;BMP180;56625;54.322;18.582;2024-03-02T04:39:42;100396.00;;;7.66
69435;BMP180;56625;54.322;18.582;2024-03-02T04:42:10;100394.80;;;7.60
69435;BMP180;56625;54.322;18.582;2024-03-02T04:44:39;100402.20;;;7.60
69435;BMP180;56625;54.322;18.582;2024-03-02T04:47:07;100395.40;;;7.60
69435;BMP180;56625;54.322;18.582;2024-03-02T04:49:35;100392.80;;;7.60
69435;BMP180;56625;54.322;18.582;2024-03-02T04:52:03;100395.80;;;7.60
69435;BMP180;56625;54.322;18.582;2024-03-02T04:54:32;100393.40;;;7.60
69435;BMP180;56625;54.322;18.582;2024-03-02T04:57:00;100393.60;;;7.60
69435;BMP180;56625;54.322;18.582;2024-03-02T04:59:28;100390.20;;;7.60
69435;BMP180;56625;54.322;18.582;2024-03-02T05:01:56;100387.60;;;7.60
69435;BMP180;56625;54.322;18.582;2024-03-02T05:04:24;100387.60;;;7.60
69435;BMP180;56625;54.322;18.582;2024-03-02T05:06:52;100385.60;;;7.60
69435;BMP180;56625;54.322;18.582;2024-03-02T05:09:23;100379.00;;;7.60
69435;BMP180;56625;54.322;18.582;2024-03-02T05:11:51;100379.80;;;7.60
69435;BMP180;56625;54.322;18.582;2024-03-02T05:14:58;100380.00;;;7.60
69435;BMP180;56625;54.322;18.582;2024-03-02T05:17:26;100380.40;;;7.60
69435;BMP180;56625;54.322;18.582;2024-03-02T05:19:54;100384.40;;;7.60
69435;BMP180;56625;54.322;18.582;2024-03-02T05:22:22;100381.80;;;7.60
69435;BMP180;56625;54.322;18.582;2024-03-02T05:24:50;100383.40;;;7.60
69435;BMP180;56625;54.322;18.582;2024-03-02T05:27:18;100388.20;;;7.60
69435;BMP180;56625;54.322;18.582;2024-03-02T05:29:46;100392.40;;;7.60
69435;BMP180;56625;54.322;18.582;2024-03-02T05:32:15;100391.00;;;7.60
69435;BMP180;56625;54.322;18.582;2024-03-02T05:34:43;100390.00;;;7.60
69435;BMP180;56625;54.322;18.582;2024-03-02T05:37:11;100390.80;;;7.60
69435;BMP180;56625;54.322;18.582;2024-03-02T05:39:39;100394.00;;;7.60
69435;BMP180;56625;54.322;18.582;2024-03-02T05:42:07;100401.40;;;7.60
69435;BMP180;56625;54.322;18.582;2024-03-02T05:44:36;100404.00;;;7.60
69435;BMP180;56625;54.322;18.582;2024-03-02T05:47:05;100406.00;;;7.60
69435;BMP180;56625;54.322;18.582;2024-03-02T05:49:33;100409.40;;;7.60
69435;BMP180;56625;54.322;18.582;2024-03-02T05:52:01;100412.00;;;7.60
69435;BMP180;56625;54.322;18.582;2024-03-02T05:54:29;100415.80;;;7.60
69435;BMP180;56625;54.322;18.582;2024-03-02T05:56:57;100425.00;;;7.60
69435;BMP180;56625;54.322;18.582;2024-03-02T05:59:44;100428.00;;;7.60
69435;BMP180;56625;54.322;18.582;2024-03-02T06:02:12;100425.20;;;7.60
69435;BMP180;56625;54.322;18.582;2024-03-02T06:04:40;100420.80;;;7.60
69435;BMP180;56625;54.322;18.582;2024-03-02T06:07:08;100422.80;;;7.50
69435;BMP180;56625;54.322;18.582;2024-03-02T06:09:36;100425.80;;;7.50
69435;BMP180;56625;54.322;18.582;2024-03-02T06:12:05;100426.20;;;7.50
69435;BMP180;56625;54.322;18.582;2024-03-02T06:14:33;100433.20;;;7.50
69435;BMP180;56625;54.322;18.582;2024-03-02T06:17:02;100429.40;;;7.50
69435;BMP180;56625;54.322;18.582;2024-03-02T06:19:30;100432.00;;;7.50
69435;BMP180;56625;54.322;18.582;2024-03-02T06:21:58;100431.80;;;7.50
69435;BMP180;56625;54.322;18.582;2024-03-02T06:24:26;100432.40;;;7.50
69435;BMP180;56625;54.322;18.582;2024-03-02T06:26:54;100439.40;;;7.50
69435;BMP180;56625;54.322;18.582;2024-03-02T06:29:22;100438.40;;;7.50
69435;BMP180;56625;54.322;18.582;2024-03-02T06:31:50;100442.80;;;7.50
69435;BMP180;56625;54.322;18.582;2024-03-02T06:34:21;100440.60;;;7.50
69435;BMP180;56625;54.322;18.582;2024-03-02T06:36:50;100435.00;;;7.50
69435;BMP180;56625;54.322;18.582;2024-03-02T06:39:18;100434.00;;;7.50
69435;BMP180;56625;54.322;18.582;2024-03-02T06:41:46;100423.60;;;7.50
69435;BMP180;56625;54.322;18.582;2024-03-02T06:44:17;100433.60;;;7.60
69435;BMP180;56625;54.322;18.582;2024-03-02T06:46:45;100429.80;;;7.60
69435;BMP180;56625;54.322;18.582;2024-03-02T06:49:14;100433.40;;;7.60
69435;BMP180;56625;54.322;18.582;2024-03-02T06:51:42;100436.40;;;7.60
69435;BMP180;56625;54.322;18.582;2024-03-02T06:54:10;100435.00;;;7.60
69435;BMP180;56625;54.322;18.582;2024-03-02T06:56:38;100428.00;;;7.68
69435;BMP180;56625;54.322;18.582;2024-03-02T06:59:06;100426.80;;;7.70
69435;BMP180;56625;54.322;18.582;2024-03-02T07:01:35;100434.20;;;7.70
69435;BMP180;56625;54.322;18.582;2024-03-02T07:04:04;100432.60;;;7.80
69435;BMP180;56625;54.322;18.582;2024-03-02T07:06:34;100424.60;;;7.80
69435;BMP180;56625;54.322;18.582;2024-03-02T07:09:02;100421.40;;;7.90
69435;BMP180;56625;54.322;18.582;2024-03-02T07:11:30;100424.60;;;7.90
69435;BMP180;56625;54.322;18.582;2024-03-02T07:13:58;100425.80;;;8.00
69435;BMP180;56625;54.322;18.582;2024-03-02T07:16:26;100436.80;;;8.00
69435;BMP180;56625;54.322;18.582;2024-03-02T07:19:01;100434.40;;;8.10
69435;BMP180;56625;54.322;18.582;2024-03-02T07:21:30;100433.40;;;8.10
69435;BMP180;56625;54.322;18.582;2024-03-02T07:23:59;100424.40;;;8.16
69435;BMP180;56625;54.322;18.582;2024-03-02T07:26:27;100429.80;;;8.20
69435;BMP180;56625;54.322;18.582;2024-03-02T07:28:58;100432.20;;;8.20
69435;BMP180;56625;54.322;18.582;2024-03-02T07:31:26;100441.40;;;8.20
69435;BMP180;56625;54.322;18.582;2024-03-02T07:33:54;100448.20;;;8.14
69435;BMP180;56625;54.322;18.582;2024-03-02T07:36:23;100441.60;;;8.10
69435;BMP180;56625;54.322;18.582;2024-03-02T07:38:51;100445.60;;;8.10
69435;BMP180;56625;54.322;18.582;2024-03-02T07:41:19;100429.60;;;8.10
69435;BMP180;56625;54.322;18.582;2024-03-02T07:43:48;100432.80;;;8.10
69435;BMP180;56625;54.322;18.582;2024-03-02T07:46:16;100449.00;;;8.10
69435;BMP180;56625;54.322;18.582;2024-03-02T07:48:45;100458.00;;;8.08
69435;BMP180;56625;54.322;18.582;2024-03-02T07:51:13;100461.20;;;8.00
69435;BMP180;56625;54.322;18.582;2024-03-02T07:53:42;100457.20;;;7.92
69435;BMP180;56625;54.322;18.582;2024-03-02T07:56:11;100456.80;;;7.90
69435;BMP180;56625;54.322;18.582;2024-03-02T07:58:40;100444.20;;;7.90
69435;BMP180;56625;54.322;18.582;2024-03-02T08:01:10;100455.60;;;7.90
69435;BMP180;56625;54.322;18.582;2024-03-02T08:03:38;100464.40;;;7.90
69435;BMP180;56625;54.322;18.582;2024-03-02T08:06:07;100460.20;;;7.90
69435;BMP180;56625;54.322;18.582;2024-03-02T08:08:35;100464.00;;;7.90
69435;BMP180;56625;54.322;18.582;2024-03-02T08:11:03;100459.40;;;7.90
69435;BMP180;56625;54.322;18.582;2024-03-02T08:13:31;100469.00;;;7.90
69435;BMP180;56625;54.322;18.582;2024-03-02T08:15:59;100478.00;;;7.82
69435;BMP180;56625;54.322;18.582;2024-03-02T08:18:27;100476.20;;;7.80
69435;BMP180;56625;54.322;18.582;2024-03-02T08:20:55;100467.60;;;7.82
69435;BMP180;56625;54.322;18.582;2024-03-02T08:23:24;100466.80;;;7.90
69435;BMP180;56625;54.322;18.582;2024-03-02T08:25:52;100465.20;;;7.94
69435;BMP180;56625;54.322;18.582;2024-03-02T08:28:20;100461.00;;;8.00
69435;BMP180;56625;54.322;18.582;2024-03-02T08:30:48;100473.40;;;8.10
69435;BMP180;56625;54.322;18.582;2024-03-02T08:33:16;100472.60;;;8.10
69435;BMP180;56625;54.322;18.582;2024-03-02T08:35:44;100465.60;;;8.20
69435;BMP180;56625;54.322;18.582;2024-03-02T08:38:12;100462.40;;;8.22
69435;BMP180;56625;54.322;18.582;2024-03-02T08:40:41;100468.40;;;8.30
69435;BMP180;56625;54.322;18.582;2024-03-02T08:43:09;100467.00;;;8.30
69435;BMP180;56625;54.322;18.582;2024-03-02T08:45:37;100468.40;;;8.30
69435;BMP180;56625;54.322;18.582;2024-03-02T08:48:14;100466.60;;;8.30
69435;BMP180;56625;54.322;18.582;2024-03-02T08:50:42;100467.80;;;8.30
69435;BMP180;56625;54.322;18.582;2024-03-02T08:53:14;100480.00;;;8.30
69435;BMP180;56625;54.322;18.582;2024-03-02T08:55:46;100466.40;;;8.30
69435;BMP180;56625;54.322;18.582;2024-03-02T08:58:15;100458.80;;;8.30
69435;BMP180;56625;54.322;18.582;2024-03-02T09:00:43;100469.60;;;8.20
69435;BMP180;56625;54.322;18.582;2024-03-02T09:03:12;100466.20;;;8.20
69435;BMP180;56625;54.322;18.582;2024-03-02T09:05:40;100468.00;;;8.20
69435;BMP180;56625;54.322;18.582;2024-03-02T09:08:09;100474.80;;;8.20
69435;BMP180;56625;54.322;18.582;2024-03-02T09:10:37;100472.20;;;8.20
69435;BMP180;56625;54.322;18.582;2024-03-02T09:13:07;100475.60;;;8.20
69435;BMP180;56625;54.322;18.582;2024-03-02T09:15:36;100480.80;;;8.22
69435;BMP180;56625;54.322;18.582;2024-03-02T09:18:05;100476.60;;;8.30
69435;BMP180;56625;54.322;18.582;2024-03-02T09:20:34;100467.80;;;8.22
69435;BMP180;56625;54.322;18.582;2024-03-02T09:23:03;100471.20;;;8.30
69435;BMP180;56625;54.322;18.582;2024-03-02T09:25:31;100470.00;;;8.30
69435;BMP180;56625;54.322;18.582;2024-03-02T09:27:59;100472.80;;;8.30
69435;BMP180;56625;54.322;18.582;2024-03-02T09:30:27;100475.60;;;8.34
69435;BMP180;56625;54.322;18.582;2024-03-02T09:32:55;100479.00;;;8.40
69435;BMP180;56625;54.322;18.582;2024-03-02T09:35:44;100488.80;;;8.40
69435;BMP180;56625;54.322;18.582;2024-03-02T09:38:12;100483.80;;;8.40
69435;BMP180;56625;54.322;18.582;2024-03-02T09:40:42;100493.20;;;8.40
69435;BMP180;56625;54.322;18.582;2024-03-02T09:43:11;100496.60;;;8.38
69435;BMP180;56625;54.322;18.582;2024-03-02T09:45:40;100505.60;;;8.30
69435;BMP180;56625;54.322;18.582;2024-03-02T09:48:08;100505.60;;;8.40
69435;BMP180;56625;54.322;18.582;2024-03-02T09:50:36;100504.80;;;8.40
69435;BMP180;56625;54.322;18.582;2024-03-02T09:53:07;100503.60;;;8.50
69435;BMP180;56625;54.322;18.582;2024-03-02T09:55:36;100506.40;;;8.60
69435;BMP180;56625;54.322;18.582;2024-03-02T09:58:04;100510.80;;;8.64
69435;BMP180;56625;54.322;18.582;2024-03-02T10:00:32;100509.20;;;8.70
69435;BMP180;56625;54.322;18.582;2024-03-02T10:03:01;100506.40;;;8.74
69435;BMP180;56625;54.322;18.582;2024-03-02T10:05:29;100507.20;;;8.80
69435;BMP180;56625;54.322;18.582;2024-03-02T10:08:02;100511.20;;;8.80
69435;BMP180;56625;54.322;18.582;2024-03-02T10:10:41;100506.00;;;8.80
69435;BMP180;56625;54.322;18.582;2024-03-02T10:13:13;100498.00;;;8.80
69435;BMP180;56625;54.322;18.582;2024-03-02T10:15:41;100503.00;;;8.88
69435;BMP180;56625;54.322;18.582;2024-03-02T10:18:12;100495.80;;;9.00
69435;BMP180;56625;54.322;18.582;2024-03-02T10:20:41;100497.00;;;9.00
69435;BMP180;56625;54.322;18.582;2024-03-02T10:23:14;100507.60;;;9.10
69435;BMP180;56625;54.322;18.582;2024-03-02T10:25:44;100502.60;;;9.10
69435;BMP180;56625;54.322;18.582;2024-03-02T10:28:24;100500.40;;;9.20
69435;BMP180;56625;54.322;18.582;2024-03-02T10:30:57;100502.20;;;9.30
69435;BMP180;56625;54.322;18.582;2024-03-02T10:33:25;100504.00;;;9.40
69435;BMP180;56625;54.322;18.582;2024-03-02T10:35:55;100498.20;;;9.50
69435;BMP180;56625;54.322;18.582;2024-03-02T10:38:23;100502.40;;;9.60
69435;BMP180;56625;54.322;18.582;2024-03-02T10:40:52;100499.20;;;9.64
69435;BMP180;56625;54.322;18.582;2024-03-02T10:43:23;100499.20;;;9.80
69435;BMP180;56625;54.322;18.582;2024-03-02T10:45:57;100497.00;;;10.00
69435;BMP180;56625;54.322;18.582;2024-03-02T10:48:27;100493.60;;;10.20
69435;BMP180;56625;54.322;18.582;2024-03-02T10:50:56;100488.20;;;10.34
69435;BMP180;56625;54.322;18.582;2024-03-02T10:53:27;100492.80;;;10.40
69435;BMP180;56625;54.322;18.582;2024-03-02T10:55:58;100491.00;;;10.44
69435;BMP180;56625;54.322;18.582;2024-03-02T10:58:32;100484.20;;;10.50
69435;BMP180;56625;54.322;18.582;2024-03-02T11:01:03;100481.20;;;10.70
69435;BMP180;56625;54.322;18.582;2024-03-02T11:03:35;100484.00;;;10.86
69435;BMP180;56625;54.322;18.582;2024-03-02T11:06:08;100483.00;;;11.00
69435;BMP180;56625;54.322;18.582;2024-03-02T11:08:38;100471.00;;;11.10
69435;BMP180;56625;54.322;18.582;2024-03-02T11:11:15;100464.40;;;11.10
69435;BMP180;56625;54.322;18.582;2024-03-02T11:13:50;100476.20;;;11.10
69435;BMP180;56625;54.322;18.582;2024-03-02T11:16:37;100468.80;;;11.20
69435;BMP180;56625;54.322;18.582;2024-03-02T11:19:13;100462.60;;;11.30
69435;BMP180;56625;54.322;18.582;2024-03-02T11:21:45;100465.00;;;11.38
69435;BMP180;56625;54.322;18.582;2024-03-02T11:26:51;100459.60;;;11.50
69435;BMP180;56625;54.322;18.582;2024-03-02T11:32:13;100454.80;;;11.50
69435;BMP180;56625;54.322;18.582;2024-03-02T11:34:45;100459.80;;;11.50
69435;BMP180;56625;54.322;18.582;2024-03-02T11:37:18;100460.40;;;11.58
69435;BMP180;56625;54.322;18.582;2024-03-02T11:39:53;100460.00;;;11.62
69435;BMP180;56625;54.322;18.582;2024-03-02T11:42:22;100456.00;;;11.62
69435;BMP180;56625;54.322;18.582;2024-03-02T11:44:50;100458.60;;;11.60
69435;BMP180;56625;54.322;18.582;2024-03-02T11:47:18;100456.20;;;11.60
69435;BMP180;56625;54.322;18.582;2024-03-02T11:49:51;100456.20;;;11.60
69435;BMP180;56625;54.322;18.582;2024-03-02T11:52:19;100456.20;;;11.52
69435;BMP180;56625;54.322;18.582;2024-03-02T11:54:48;100455.20;;;11.56
69435;BMP180;56625;54.322;18.582;2024-03-02T11:57:21;100451.60;;;11.56
69435;BMP180;56625;54.322;18.582;2024-03-02T11:59:54;100450.40;;;11.40
69435;BMP180;56625;54.322;18.582;2024-03-02T12:02:23;100455.00;;;11.40
69435;BMP180;56625;54.322;18.582;2024-03-02T12:04:51;100455.60;;;11.40
69435;BMP180;56625;54.322;18.582;2024-03-02T12:07:21;100461.60;;;11.40
69435;BMP180;56625;54.322;18.582;2024-03-02T12:10:00;100460.80;;;11.40
69435;BMP180;56625;54.322;18.582;2024-03-02T12:12:31;100463.40;;;11.40
69435;BMP180;56625;54.322;18.582;2024-03-02T12:14:59;100465.20;;;11.40
69435;BMP180;56625;54.322;18.582;2024-03-02T12:17:29;100457.20;;;11.50
69435;BMP180;56625;54.322;18.582;2024-03-02T12:19:58;100462.80;;;11.50
69435;BMP180;56625;54.322;18.582;2024-03-02T12:22:26;100468.20;;;11.50
69435;BMP180;56625;54.322;18.582;2024-03-02T12:24:54;100472.00;;;11.50
69435;BMP180;56625;54.322;18.582;2024-03-02T12:27:23;100466.80;;;11.50
69435;BMP180;56625;54.322;18.582;2024-03-02T12:29:51;100475.40;;;11.46
69435;BMP180;56625;54.322;18.582;2024-03-02T12:32:19;100475.40;;;11.50
69435;BMP180;56625;54.322;18.582;2024-03-02T12:34:47;100472.80;;;11.42
69435;BMP180;56625;54.322;18.582;2024-03-02T12:37:16;100479.20;;;11.40
69435;BMP180;56625;54.322;18.582;2024-03-02T12:39:47;100477.60;;;11.40
69435;BMP180;56625;54.322;18.582;2024-03-02T12:42:15;100471.40;;;11.40
69435;BMP180;56625;54.322;18.582;2024-03-02T12:44:43;100469.00;;;11.30
69435;BMP180;56625;54.322;18.582;2024-03-02T12:47:12;100468.00;;;11.30
69435;BMP180;56625;54.322;18.582;2024-03-02T12:49:41;100462.20;;;11.40
69435;BMP180;56625;54.322;18.582;2024-03-02T12:52:12;100467.20;;;11.40
69435;BMP180;56625;54.322;18.582;2024-03-02T12:54:41;100470.20;;;11.30
69435;BMP180;56625;54.322;18.582;2024-03-02T12:57:09;100470.20;;;11.32
69435;BMP180;56625;54.322;18.582;2024-03-02T12:59:37;100468.80;;;11.38
69435;BMP180;56625;54.322;18.582;2024-03-02T13:02:06;100466.20;;;11.40
69435;BMP180;56625;54.322;18.582;2024-03-02T13:04:34;100471.60;;;11.50
69435;BMP180;56625;54.322;18.582;2024-03-02T13:07:03;100471.80;;;11.50
69435;BMP180;56625;54.322;18.582;2024-03-02T13:09:31;100475.00;;;11.50
69435;BMP180;56625;54.322;18.582;2024-03-02T13:12:02;100473.20;;;11.60
69435;BMP180;56625;54.322;18.582;2024-03-02T13:14:33;100471.60;;;11.60
69435;BMP180;56625;54.322;18.582;2024-03-02T13:17:01;100463.80;;;11.60
69435;BMP180;56625;54.322;18.582;2024-03-02T13:19:32;100462.60;;;11.50
69435;BMP180;56625;54.322;18.582;2024-03-02T13:22:00;100465.40;;;11.50
69435;BMP180;56625;54.322;18.582;2024-03-02T13:24:31;100468.60;;;11.56
69435;BMP180;56625;54.322;18.582;2024-03-02T13:26:59;100467.00;;;11.60
69435;BMP180;56625;54.322;18.582;2024-03-02T13:29:28;100468.40;;;11.60
69435;BMP180;56625;54.322;18.582;2024-03-02T13:31:56;100467.40;;;11.60
69435;BMP180;56625;54.322;18.582;2024-03-02T13:34:25;100459.80;;;11.66
69435;BMP180;56625;54.322;18.582;2024-03-02T13:36:53;100465.40;;;11.70
69435;BMP180;56625;54.322;18.582;2024-03-02T13:39:21;100459.20;;;11.68
69435;BMP180;56625;54.322;18.582;2024-03-02T13:41:50;100457.40;;;11.70
69435;BMP180;56625;54.322;18.582;2024-03-02T13:44:25;100456.60;;;11.70
69435;BMP180;56625;54.322;18.582;2024-03-02T13:46:53;100459.80;;;11.70
69435;BMP180;56625;54.322;18.582;2024-03-02T13:49:21;100458.20;;;11.70
69435;BMP180;56625;54.322;18.582;2024-03-02T13:51:50;100458.00;;;11.70
69435;BMP180;56625;54.322;18.582;2024-03-02T13:54:19;100457.40;;;11.66
69435;BMP180;56625;54.322;18.582;2024-03-02T13:56:47;100454.60;;;11.60
69435;BMP180;56625;54.322;18.582;2024-03-02T13:59:15;100462.00;;;11.60
69435;BMP180;56625;54.322;18.582;2024-03-02T14:01:44;100457.00;;;11.60
69435;BMP180;56625;54.322;18.582;2024-03-02T14:04:12;100467.20;;;11.60
69435;BMP180;56625;54.322;18.582;2024-03-02T14:06:42;100464.40;;;11.60
69435;BMP180;56625;54.322;18.582;2024-03-02T14:09:11;100467.20;;;11.60
69435;BMP180;56625;54.322;18.582;2024-03-02T14:11:39;100474.60;;;11.60
69435;BMP180;56625;54.322;18.582;2024-03-02T14:14:07;100472.20;;;11.60
69435;BMP180;56625;54.322;18.582;2024-03-02T14:16:35;100472.00;;;11.60